sensor_id;sensor_type;location;lat;lon;timestamp;pressure;altitude;pressure_sealevel;temperature;humidity
77171;BME280;66144;50.020;14.422;2023-01-26T00:00:58;99479.44;;;3.10;73.21
77171;BME280;66144;50.020;14.422;2023-01-26T00:03:24;99485.06;;;3.13;73.20
77171;BME280;66144;50.020;14.422;2023-01-26T00:05:49;99481.66;;;3.13;73.69
77171;BME280;66144;50.020;14.422;2023-01-26T00:08:15;99476.50;;;3.13;72.61
77171;BME280;66144;50.020;14.422;2023-01-26T00:10:40;99471.34;;;3.13;72.89
77171;BME280;66144;50.020;14.422;2023-01-26T00:13:08;99468.59;;;3.15;72.79
77171;BME280;66144;50.020;14.422;2023-01-26T00:15:35;99466.81;;;3.15;73.47
77171;BME280;66144;50.020;14.422;2023-01-26T00:18:01;99467.63;;;3.16;72.72
77171;BME280;66144;50.020;14.422;2023-01-26T00:20:27;99465.84;;;3.16;72.78
77171;BME280;66144;50.020;14.422;2023-01-26T00:22:53;99460.66;;;3.16;72.31
77171;BME280;66144;50.020;14.422;2023-01-26T00:25:18;99450.09;;;3.11;73.25
77171;BME280;66144;50.020;14.422;2023-01-26T00:27:44;99445.91;;;3.10;74.03
77171;BME280;66144;50.020;14.422;2023-01-26T00:30:09;99448.94;;;3.13;73.38
77171;BME280;66144;50.020;14.422;2023-01-26T00:32:35;99442.16;;;3.12;72.98
77171;BME280;66144;50.020;14.422;2023-01-26T00:35:02;99441.38;;;3.12;73.42
77171;BME280;66144;50.020;14.422;2023-01-26T00:37:27;99440.56;;;3.11;73.68
77171;BME280;66144;50.020;14.422;2023-01-26T00:39:52;99429.88;;;3.15;73.53
77171;BME280;66144;50.020;14.422;2023-01-26T00:42:18;99433.25;;;3.15;73.43
77171;BME280;66144;50.020;14.422;2023-01-26T00:44:44;99437.44;;;3.16;73.03
77171;BME280;66144;50.020;14.422;2023-01-26T00:47:10;99431.78;;;3.06;74.05
77171;BME280;66144;50.020;14.422;2023-01-26T00:49:36;99441.72;;;3.09;74.27
77171;BME280;66144;50.020;14.422;2023-01-26T00:52:02;99439.34;;;3.07;74.42
77171;BME280;66144;50.020;14.422;2023-01-26T00:54:28;99435.16;;;3.06;73.94
77171;BME280;66144;50.020;14.422;2023-01-26T00:56:53;99433.56;;;3.05;74.75
77171;BME280;66144;50.020;14.422;2023-01-26T00:59:19;99434.72;;;3.03;73.61
77171;BME280;66144;50.020;14.422;2023-01-26T01:01:45;99431.78;;;3.06;73.53
77171;BME280;66144;50.020;14.422;2023-01-26T01:04:10;99431.41;;;3.09;73.62
77171;BME280;66144;50.020;14.422;2023-01-26T01:06:35;99428.81;;;3.09;73.89
77171;BME280;66144;50.020;14.422;2023-01-26T01:09:01;99433.56;;;3.05;73.71
77171;BME280;66144;50.020;14.422;2023-01-26T01:11:26;99430.00;;;3.06;73.96
77171;BME280;66144;50.020;14.422;2023-01-26T01:13:51;99432.13;;;3.03;74.81
77171;BME280;66144;50.020;14.422;2023-01-26T01:16:16;99427.78;;;3.03;74.06
77171;BME280;66144;50.020;14.422;2023-01-26T01:18:42;99435.88;;;3.00;74.48
77171;BME280;66144;50.020;14.422;2023-01-26T01:21:09;99431.53;;;3.01;75.37
77171;BME280;66144;50.020;14.422;2023-01-26T01:23:35;99438.19;;;2.95;74.88
77171;BME280;66144;50.020;14.422;2023-01-26T01:26:02;99439.16;;;2.94;74.67
77171;BME280;66144;50.020;14.422;2023-01-26T01:28:27;99436.16;;;2.91;74.94
77171;BME280;66144;50.020;14.422;2023-01-26T01:30:53;99438.09;;;2.89;74.21
77171;BME280;66144;50.020;14.422;2023-01-26T01:33:18;99437.22;;;2.96;74.83
77171;BME280;66144;50.020;14.422;2023-01-26T01:35:54;99441.03;;;3.00;74.38
77171;BME280;66144;50.020;14.422;2023-01-26T01:38:20;99431.34;;;3.02;73.60
77171;BME280;66144;50.020;14.422;2023-01-26T01:40:45;99423.41;;;3.04;74.04
77171;BME280;66144;50.020;14.422;2023-01-26T01:43:10;99431.16;;;3.04;74.65
77171;BME280;66144;50.020;14.422;2023-01-26T01:45:49;99425.38;;;3.02;74.44
77171;BME280;66144;50.020;14.422;2023-01-26T01:50:56;99415.78;;;2.96;74.42
77171;BME280;66144;50.020;14.422;2023-01-26T01:53:30;99420.84;;;3.04;74.40
77171;BME280;66144;50.020;14.422;2023-01-26T01:56:00;99415.69;;;3.04;74.25
77171;BME280;66144;50.020;14.422;2023-01-26T01:58:29;99415.69;;;3.04;74.88
77171;BME280;66144;50.020;14.422;2023-01-26T02:00:56;99413.72;;;3.06;73.68
77171;BME280;66144;50.020;14.422;2023-01-26T02:03:24;99407.59;;;3.07;74.38
77171;BME280;66144;50.020;14.422;2023-01-26T02:05:54;99402.22;;;3.08;74.25
77171;BME280;66144;50.020;14.422;2023-01-26T02:08:25;99402.22;;;3.08;74.05
77171;BME280;66144;50.020;14.422;2023-01-26T02:10:53;99394.28;;;3.10;74.25
77171;BME280;66144;50.020;14.422;2023-01-26T02:13:21;99390.72;;;3.11;73.84
77171;BME280;66144;50.020;14.422;2023-01-26T02:15:48;99391.53;;;3.11;74.41
77171;BME280;66144;50.020;14.422;2023-01-26T02:18:15;99382.38;;;3.09;74.32
77171;BME280;66144;50.020;14.422;2023-01-26T02:20:45;99385.94;;;3.08;74.06
77171;BME280;66144;50.020;14.422;2023-01-26T02:23:17;99392.09;;;3.07;73.75
77171;BME280;66144;50.020;14.422;2023-01-26T02:28:24;99389.09;;;3.03;73.53
77171;BME280;66144;50.020;14.422;2023-01-26T02:30:50;99381.88;;;2.99;74.36
77171;BME280;66144;50.020;14.422;2023-01-26T02:33:22;99382.50;;;3.01;74.13
77171;BME280;66144;50.020;14.422;2023-01-26T02:35:48;99381.88;;;2.99;74.11
77171;BME280;66144;50.020;14.422;2023-01-26T02:38:14;99379.91;;;3.01;73.40
77171;BME280;66144;50.020;14.422;2023-01-26T02:40:56;99367.63;;;3.03;73.46
77171;BME280;66144;50.020;14.422;2023-01-26T02:43:25;99371.19;;;3.02;74.10
77171;BME280;66144;50.020;14.422;2023-01-26T02:45:52;99370.75;;;2.98;73.97
77171;BME280;66144;50.020;14.422;2023-01-26T02:48:17;99369.78;;;2.99;73.55
77171;BME280;66144;50.020;14.422;2023-01-26T02:51:02;99368.63;;;3.02;73.46
77171;BME280;66144;50.020;14.422;2023-01-26T02:53:27;99367.63;;;3.03;73.22
77171;BME280;66144;50.020;14.422;2023-01-26T02:55:53;99363.28;;;3.03;73.17
77171;BME280;66144;50.020;14.422;2023-01-26T02:58:18;99360.50;;;3.05;73.08
77171;BME280;66144;50.020;14.422;2023-01-26T03:00:43;99361.13;;;3.07;73.04
77171;BME280;66144;50.020;14.422;2023-01-26T03:03:19;99353.56;;;3.05;73.49
77171;BME280;66144;50.020;14.422;2023-01-26T03:05:45;99352.59;;;3.06;73.82
77171;BME280;66144;50.020;14.422;2023-01-26T03:08:10;99343.25;;;3.05;73.44
77171;BME280;66144;50.020;14.422;2023-01-26T03:10:36;99346.63;;;3.06;73.34
77171;BME280;66144;50.020;14.422;2023-01-26T03:13:02;99344.84;;;3.06;73.43
77171;BME280;66144;50.020;14.422;2023-01-26T03:15:28;99347.72;;;2.97;73.35
77171;BME280;66144;50.020;14.422;2023-01-26T03:18:09;99344.06;;;2.91;74.13
77171;BME280;66144;50.020;14.422;2023-01-26T03:21:03;99347.28;;;2.93;74.19
77171;BME280;66144;50.020;14.422;2023-01-26T03:23:47;99330.81;;;2.94;74.02
77171;BME280;66144;50.020;14.422;2023-01-26T03:26:31;99334.81;;;2.97;74.20
77171;BME280;66144;50.020;14.422;2023-01-26T03:29:15;99334.16;;;2.88;74.23
77171;BME280;66144;50.020;14.422;2023-01-26T03:31:41;99327.66;;;2.77;74.16
77171;BME280;66144;50.020;14.422;2023-01-26T03:34:06;99324.28;;;2.77;73.86
77171;BME280;66144;50.020;14.422;2023-01-26T03:36:31;99319.66;;;2.72;73.96
77171;BME280;66144;50.020;14.422;2023-01-26T03:38:57;99314.59;;;2.79;74.26
77171;BME280;66144;50.020;14.422;2023-01-26T03:41:22;99319.25;;;2.69;74.34
77171;BME280;66144;50.020;14.422;2023-01-26T03:44:06;99314.94;;;2.76;74.22
77171;BME280;66144;50.020;14.422;2023-01-26T03:46:50;99307.66;;;2.80;74.07
77171;BME280;66144;50.020;14.422;2023-01-26T03:49:34;99309.78;;;2.76;73.92
77171;BME280;66144;50.020;14.422;2023-01-26T03:52:18;99320.47;;;2.73;74.42
77171;BME280;66144;50.020;14.422;2023-01-26T03:55:02;99316.09;;;2.73;74.36
77171;BME280;66144;50.020;14.422;2023-01-26T03:57:47;99318.09;;;2.57;73.97
77171;BME280;66144;50.020;14.422;2023-01-26T04:00:13;99317.84;;;2.66;73.80
77171;BME280;66144;50.020;14.422;2023-01-26T04:02:39;99311.53;;;2.69;73.72
77171;BME280;66144;50.020;14.422;2023-01-26T04:05:23;99305.97;;;2.72;73.65
77171;BME280;66144;50.020;14.422;2023-01-26T04:08:07;99304.19;;;2.72;73.11
77171;BME280;66144;50.020;14.422;2023-01-26T04:10:55;99302.78;;;2.70;73.59
77171;BME280;66144;50.020;14.422;2023-01-26T04:13:22;99293.06;;;2.72;73.44
77171;BME280;66144;50.020;14.422;2023-01-26T04:16:08;99295.03;;;2.70;73.06
77171;BME280;66144;50.020;14.422;2023-01-26T04:18:53;99303.97;;;2.67;72.96
77171;BME280;66144;50.020;14.422;2023-01-26T04:21:37;99296.41;;;2.66;73.92
77171;BME280;66144;50.020;14.422;2023-01-26T04:24:04;99300.84;;;2.57;74.04
77171;BME280;66144;50.020;14.422;2023-01-26T04:26:39;99296.41;;;2.66;74.37
77171;BME280;66144;50.020;14.422;2023-01-26T04:29:07;99306.53;;;2.67;73.34
77171;BME280;66144;50.020;14.422;2023-01-26T04:31:33;99308.50;;;2.65;74.21
77171;BME280;66144;50.020;14.422;2023-01-26T04:34:00;99302.41;;;2.73;73.62
77171;BME280;66144;50.020;14.422;2023-01-26T04:36:26;99301.78;;;2.71;73.83
77171;BME280;66144;50.020;14.422;2023-01-26T04:38:51;99302.19;;;2.68;73.51
77171;BME280;66144;50.020;14.422;2023-01-26T04:41:16;99303.16;;;2.52;73.14
77171;BME280;66144;50.020;14.422;2023-01-26T04:43:42;99294.47;;;2.53;73.19
77171;BME280;66144;50.020;14.422;2023-01-26T04:46:08;99288.69;;;2.51;72.99
77171;BME280;66144;50.020;14.422;2023-01-26T04:48:34;99290.72;;;2.56;73.21
77171;BME280;66144;50.020;14.422;2023-01-26T04:51:06;99288.59;;;2.59;73.03
77171;BME280;66144;50.020;14.422;2023-01-26T04:53:32;99286.09;;;2.51;73.70
77171;BME280;66144;50.020;14.422;2023-01-26T04:55:58;99284.41;;;2.58;73.37
77171;BME280;66144;50.020;14.422;2023-01-26T04:58:23;99278.75;;;2.48;73.67
77171;BME280;66144;50.020;14.422;2023-01-26T05:00:54;99276.97;;;2.49;74.27
77171;BME280;66144;50.020;14.422;2023-01-26T05:03:20;99278.19;;;2.53;74.16
77171;BME280;66144;50.020;14.422;2023-01-26T05:05:50;99272.72;;;2.41;74.46
77171;BME280;66144;50.020;14.422;2023-01-26T05:08:17;99270.13;;;2.41;73.89
77171;BME280;66144;50.020;14.422;2023-01-26T05:10:43;99272.81;;;2.48;74.79
77171;BME280;66144;50.020;14.422;2023-01-26T05:13:08;99272.72;;;2.41;74.22
77171;BME280;66144;50.020;14.422;2023-01-26T05:15:34;99269.19;;;2.27;74.19
77171;BME280;66144;50.020;14.422;2023-01-26T05:18:00;99276.75;;;2.29;74.29
77171;BME280;66144;50.020;14.422;2023-01-26T05:20:26;99279.13;;;2.45;73.55
77171;BME280;66144;50.020;14.422;2023-01-26T05:22:51;99282.31;;;2.47;74.09
77171;BME280;66144;50.020;14.422;2023-01-26T05:25:17;99281.97;;;2.50;73.50
77171;BME280;66144;50.020;14.422;2023-01-26T05:27:42;99285.13;;;2.52;73.93
77171;BME280;66144;50.020;14.422;2023-01-26T05:30:08;99281.97;;;2.50;74.07
77171;BME280;66144;50.020;14.422;2023-01-26T05:32:35;99271.03;;;2.48;72.98
77171;BME280;66144;50.020;14.422;2023-01-26T05:35:00;99276.81;;;2.50;73.28
77171;BME280;66144;50.020;14.422;2023-01-26T05:37:28;99275.63;;;2.53;73.28
77171;BME280;66144;50.020;14.422;2023-01-26T05:39:54;99273.22;;;2.51;73.32
77171;BME280;66144;50.020;14.422;2023-01-26T05:42:20;99275.44;;;2.54;72.63
77171;BME280;66144;50.020;14.422;2023-01-26T05:44:45;99275.25;;;2.56;72.68
77171;BME280;66144;50.020;14.422;2023-01-26T05:47:10;99278.63;;;2.56;72.80
77171;BME280;66144;50.020;14.422;2023-01-26T05:49:36;99278.28;;;2.59;73.40
77171;BME280;66144;50.020;14.422;2023-01-26T05:52:09;99279.88;;;2.60;72.66
77171;BME280;66144;50.020;14.422;2023-01-26T05:54:35;99267.16;;;2.59;71.75
77171;BME280;66144;50.020;14.422;2023-01-26T05:57:00;99272.75;;;2.62;72.58
77171;BME280;66144;50.020;14.422;2023-01-26T05:59:26;99267.88;;;2.67;72.34
77171;BME280;66144;50.020;14.422;2023-01-26T06:01:51;99267.88;;;2.67;72.30
77171;BME280;66144;50.020;14.422;2023-01-26T06:04:16;99267.25;;;2.65;73.64
77171;BME280;66144;50.020;14.422;2023-01-26T06:06:41;99270.19;;;2.62;73.06
77171;BME280;66144;50.020;14.422;2023-01-26T06:09:07;99269.81;;;2.65;73.16
77171;BME280;66144;50.020;14.422;2023-01-26T06:11:32;99275.06;;;2.57;72.91
77171;BME280;66144;50.020;14.422;2023-01-26T06:13:58;99268.84;;;2.52;73.01
77171;BME280;66144;50.020;14.422;2023-01-26T06:16:23;99267.06;;;2.31;73.87
77171;BME280;66144;50.020;14.422;2023-01-26T06:18:48;99264.38;;;2.39;74.12
77171;BME280;66144;50.020;14.422;2023-01-26T06:21:14;99269.88;;;2.36;73.86
77171;BME280;66144;50.020;14.422;2023-01-26T06:23:40;99261.63;;;2.26;73.81
77171;BME280;66144;50.020;14.422;2023-01-26T06:26:05;99262.00;;;2.23;73.37
77171;BME280;66144;50.020;14.422;2023-01-26T06:28:31;99261.16;;;2.37;74.28
77171;BME280;66144;50.020;14.422;2023-01-26T06:31:05;99263.28;;;2.33;73.75
77171;BME280;66144;50.020;14.422;2023-01-26T06:33:34;99259.81;;;2.41;74.66
77171;BME280;66144;50.020;14.422;2023-01-26T06:36:01;99262.84;;;2.45;73.82
77171;BME280;66144;50.020;14.422;2023-01-26T06:38:27;99264.28;;;2.47;73.95
77171;BME280;66144;50.020;14.422;2023-01-26T06:40:52;99261.06;;;2.45;73.88
77171;BME280;66144;50.020;14.422;2023-01-26T06:43:17;99261.88;;;2.46;73.62
77171;BME280;66144;50.020;14.422;2023-01-26T06:45:43;99251.75;;;2.44;73.74
77171;BME280;66144;50.020;14.422;2023-01-26T06:48:08;99255.28;;;2.43;73.49
77171;BME280;66144;50.020;14.422;2023-01-26T06:50:34;99253.16;;;2.47;74.13
77171;BME280;66144;50.020;14.422;2023-01-26T06:53:00;99248.84;;;2.54;74.00
77171;BME280;66144;50.020;14.422;2023-01-26T06:55:37;99253.59;;;2.50;74.26
77171;BME280;66144;50.020;14.422;2023-01-26T06:58:03;99256.53;;;2.47;73.89
77171;BME280;66144;50.020;14.422;2023-01-26T07:00:28;99252.59;;;2.51;73.74
77171;BME280;66144;50.020;14.422;2023-01-26T07:02:53;99263.53;;;2.53;73.90
77171;BME280;66144;50.020;14.422;2023-01-26T07:05:19;99256.94;;;2.51;73.26
77171;BME280;66144;50.020;14.422;2023-01-26T07:07:44;99262.72;;;2.53;73.39
77171;BME280;66144;50.020;14.422;2023-01-26T07:10:10;99250.91;;;2.58;73.64
77171;BME280;66144;50.020;14.422;2023-01-26T07:12:42;99254.88;;;2.61;73.36
77171;BME280;66144;50.020;14.422;2023-01-26T07:15:12;99259.69;;;2.64;72.92
77171;BME280;66144;50.020;14.422;2023-01-26T07:17:38;99255.50;;;2.63;72.85
77171;BME280;66144;50.020;14.422;2023-01-26T07:20:03;99251.78;;;2.65;72.40
77171;BME280;66144;50.020;14.422;2023-01-26T07:22:29;99250.16;;;2.64;73.09
77171;BME280;66144;50.020;14.422;2023-01-26T07:24:54;99249.81;;;2.67;72.61
77171;BME280;66144;50.020;14.422;2023-01-26T07:27:20;99245.38;;;2.61;73.23
77171;BME280;66144;50.020;14.422;2023-01-26T07:29:45;99248.56;;;2.63;72.85
77171;BME280;66144;50.020;14.422;2023-01-26T07:32:11;99248.56;;;2.63;73.07
77171;BME280;66144;50.020;14.422;2023-01-26T07:34:36;99255.16;;;2.66;73.73
77171;BME280;66144;50.020;14.422;2023-01-26T07:37:02;99260.47;;;2.64;73.12
77171;BME280;66144;50.020;14.422;2023-01-26T07:39:27;99258.88;;;2.63;73.12
77171;BME280;66144;50.020;14.422;2023-01-26T07:41:52;99259.31;;;2.67;72.77
77171;BME280;66144;50.020;14.422;2023-01-26T07:44:18;99260.66;;;2.63;72.66
77171;BME280;66144;50.020;14.422;2023-01-26T07:46:43;99262.88;;;2.66;72.87
77171;BME280;66144;50.020;14.422;2023-01-26T07:49:08;99263.88;;;2.65;73.22
77171;BME280;66144;50.020;14.422;2023-01-26T07:51:36;99263.25;;;2.63;72.99
77171;BME280;66144;50.020;14.422;2023-01-26T07:54:02;99261.09;;;2.66;72.37
77171;BME280;66144;50.020;14.422;2023-01-26T07:56:27;99263.25;;;2.63;72.70
77171;BME280;66144;50.020;14.422;2023-01-26T07:58:53;99269.56;;;2.60;72.54
77171;BME280;66144;50.020;14.422;2023-01-26T08:01:19;99261.66;;;2.62;72.87
77171;BME280;66144;50.020;14.422;2023-01-26T08:03:48;99258.44;;;2.60;72.79
77171;BME280;66144;50.020;14.422;2023-01-26T08:06:14;99255.13;;;2.45;73.30
77171;BME280;66144;50.020;14.422;2023-01-26T08:08:41;99253.47;;;2.58;73.04
77171;BME280;66144;50.020;14.422;2023-01-26T08:11:07;99256.22;;;2.57;72.96
77171;BME280;66144;50.020;14.422;2023-01-26T08:13:33;99256.94;;;2.65;72.67
77171;BME280;66144;50.020;14.422;2023-01-26T08:16:05;99250.78;;;2.66;73.39
77171;BME280;66144;50.020;14.422;2023-01-26T08:18:33;99250.63;;;2.68;72.89
77171;BME280;66144;50.020;14.422;2023-01-26T08:20:58;99242.00;;;2.61;72.95
77171;BME280;66144;50.020;14.422;2023-01-26T08:23:24;99245.56;;;2.60;72.36
77171;BME280;66144;50.020;14.422;2023-01-26T08:25:50;99248.22;;;2.66;72.52
77171;BME280;66144;50.020;14.422;2023-01-26T08:28:15;99249.19;;;2.65;72.58
77171;BME280;66144;50.020;14.422;2023-01-26T08:30:40;99246.03;;;2.70;72.74
77171;BME280;66144;50.020;14.422;2023-01-26T08:33:06;99241.31;;;2.73;72.52
77171;BME280;66144;50.020;14.422;2023-01-26T08:35:32;99237.16;;;2.72;72.84
77171;BME280;66144;50.020;14.422;2023-01-26T08:37:57;99236.97;;;2.74;71.67
77171;BME280;66144;50.020;14.422;2023-01-26T08:40:22;99243.53;;;2.76;71.56
77171;BME280;66144;50.020;14.422;2023-01-26T08:42:49;99239.97;;;2.77;71.40
77171;BME280;66144;50.020;14.422;2023-01-26T08:45:14;99243.19;;;2.80;71.54
77171;BME280;66144;50.020;14.422;2023-01-26T08:47:39;99242.38;;;2.79;72.43
77171;BME280;66144;50.020;14.422;2023-01-26T08:50:05;99246.91;;;2.77;71.64
77171;BME280;66144;50.020;14.422;2023-01-26T08:52:30;99250.28;;;2.77;71.62
77171;BME280;66144;50.020;14.422;2023-01-26T08:54:55;99247.72;;;2.77;71.69
77171;BME280;66144;50.020;14.422;2023-01-26T08:57:21;99243.72;;;2.75;71.63
77171;BME280;66144;50.020;14.422;2023-01-26T08:59:46;99252.63;;;2.72;71.92
77171;BME280;66144;50.020;14.422;2023-01-26T09:02:11;99245.50;;;2.74;72.46
77171;BME280;66144;50.020;14.422;2023-01-26T09:04:37;99251.03;;;2.71;72.11
77171;BME280;66144;50.020;14.422;2023-01-26T09:07:03;99250.22;;;2.71;72.30
77171;BME280;66144;50.020;14.422;2023-01-26T09:09:29;99247.47;;;2.72;72.52
77171;BME280;66144;50.020;14.422;2023-01-26T09:11:55;99248.88;;;2.75;72.09
77171;BME280;66144;50.020;14.422;2023-01-26T09:14:20;99259.19;;;2.75;71.94
77171;BME280;66144;50.020;14.422;2023-01-26T09:16:46;99256.25;;;2.78;71.66
77171;BME280;66144;50.020;14.422;2023-01-26T09:19:12;99249.41;;;2.70;72.28
77171;BME280;66144;50.020;14.422;2023-01-26T09:21:37;99239.97;;;2.77;71.81
77171;BME280;66144;50.020;14.422;2023-01-26T09:24:03;99239.34;;;2.75;71.83
77171;BME280;66144;50.020;14.422;2023-01-26T09:26:28;99246.13;;;2.76;71.93
77171;BME280;66144;50.020;14.422;2023-01-26T09:28:54;99241.56;;;2.78;71.84
77171;BME280;66144;50.020;14.422;2023-01-26T09:31:20;99242.81;;;2.83;72.30
77171;BME280;66144;50.020;14.422;2023-01-26T09:33:47;99247.97;;;2.83;72.42
77171;BME280;66144;50.020;14.422;2023-01-26T09:36:12;99247.44;;;2.87;71.36
77171;BME280;66144;50.020;14.422;2023-01-26T09:38:38;99239.63;;;2.81;71.91
77171;BME280;66144;50.020;14.422;2023-01-26T09:48:59;99228.19;;;2.90;71.71
77171;BME280;66144;50.020;14.422;2023-01-26T09:51:37;99231.38;;;2.92;71.46
77171;BME280;66144;50.020;14.422;2023-01-26T09:56:36;99224.88;;;2.96;70.80
77171;BME280;66144;50.020;14.422;2023-01-26T09:59:26;99228.25;;;2.96;70.71
77171;BME280;66144;50.020;14.422;2023-01-26T10:01:59;99225.22;;;2.93;70.45
77171;BME280;66144;50.020;14.422;2023-01-26T10:04:31;99228.06;;;2.98;71.22
77171;BME280;66144;50.020;14.422;2023-01-26T10:07:02;99234.81;;;2.99;70.55
77171;BME280;66144;50.020;14.422;2023-01-26T10:09:31;99226.09;;;3.00;70.58
77171;BME280;66144;50.020;14.422;2023-01-26T10:14:53;99221.19;;;3.05;70.04
77171;BME280;66144;50.020;14.422;2023-01-26T10:17:29;99223.16;;;3.03;70.89
77171;BME280;66144;50.020;14.422;2023-01-26T10:20:35;99218.78;;;3.03;70.43
77171;BME280;66144;50.020;14.422;2023-01-26T10:23:28;99217.19;;;3.02;69.95
77171;BME280;66144;50.020;14.422;2023-01-26T10:26:15;99210.09;;;3.11;70.63
77171;BME280;66144;50.020;14.422;2023-01-26T10:28:42;99208.94;;;3.13;70.61
77171;BME280;66144;50.020;14.422;2023-01-26T10:31:15;99206.16;;;3.15;70.14
77171;BME280;66144;50.020;14.422;2023-01-26T10:33:48;99204.56;;;3.14;69.95
77171;BME280;66144;50.020;14.422;2023-01-26T10:36:15;99204.94;;;3.11;70.53
77171;BME280;66144;50.020;14.422;2023-01-26T10:38:41;99211.88;;;3.10;70.48
77171;BME280;66144;50.020;14.422;2023-01-26T10:43:56;99213.06;;;3.08;70.15
77171;BME280;66144;50.020;14.422;2023-01-26T10:46:38;99216.25;;;3.10;70.07
77171;BME280;66144;50.020;14.422;2023-01-26T10:49:24;99211.88;;;3.10;69.91
77171;BME280;66144;50.020;14.422;2023-01-26T10:52:13;99211.31;;;3.15;70.93
77171;BME280;66144;50.020;14.422;2023-01-26T10:54:39;99207.16;;;3.14;70.60
77171;BME280;66144;50.020;14.422;2023-01-26T10:57:26;99207.94;;;3.15;70.73
77171;BME280;66144;50.020;14.422;2023-01-26T10:59:55;99200.53;;;3.05;70.16
77171;BME280;66144;50.020;14.422;2023-01-26T11:02:29;99204.53;;;3.07;70.69
77171;BME280;66144;50.020;14.422;2023-01-26T11:07:37;99201.38;;;3.12;70.62
77171;BME280;66144;50.020;14.422;2023-01-26T11:10:28;99201.81;;;3.16;70.85
77171;BME280;66144;50.020;14.422;2023-01-26T11:15:44;99195.41;;;3.11;70.35
77171;BME280;66144;50.020;14.422;2023-01-26T11:21:07;99190.69;;;3.15;70.45
77171;BME280;66144;50.020;14.422;2023-01-26T11:23:58;99185.91;;;3.12;70.54
77171;BME280;66144;50.020;14.422;2023-01-26T11:32:39;99189.94;;;3.21;70.45
77171;BME280;66144;50.020;14.422;2023-01-26T11:37:46;99176.66;;;3.24;70.54
77171;BME280;66144;50.020;14.422;2023-01-26T11:41:01;99185.22;;;3.25;70.79
77171;BME280;66144;50.020;14.422;2023-01-26T11:46:15;99179.66;;;3.28;70.09
77171;BME280;66144;50.020;14.422;2023-01-26T11:57:23;99164.59;;;3.31;71.46
77171;BME280;66144;50.020;14.422;2023-01-26T12:02:38;99164.22;;;3.34;71.72
77171;BME280;66144;50.020;14.422;2023-01-26T12:05:48;99162.38;;;3.28;70.99
77171;BME280;66144;50.020;14.422;2023-01-26T12:08:37;99155.22;;;3.24;71.69
77171;BME280;66144;50.020;14.422;2023-01-26T12:11:07;99164.38;;;3.26;71.28
77171;BME280;66144;50.020;14.422;2023-01-26T12:19:36;99146.88;;;3.28;71.29
77171;BME280;66144;50.020;14.422;2023-01-26T12:22:11;99141.34;;;3.25;71.19
77171;BME280;66144;50.020;14.422;2023-01-26T12:24:41;99131.41;;;3.28;72.19
77171;BME280;66144;50.020;14.422;2023-01-26T12:27:20;99131.56;;;3.20;72.25
77171;BME280;66144;50.020;14.422;2023-01-26T12:29:55;99128.63;;;3.23;72.67
77171;BME280;66144;50.020;14.422;2023-01-26T12:32:25;99127.53;;;3.11;72.91
77171;BME280;66144;50.020;14.422;2023-01-26T12:34:50;99126.59;;;3.19;72.98
77171;BME280;66144;50.020;14.422;2023-01-26T12:37:29;99125.78;;;3.18;73.45
77171;BME280;66144;50.020;14.422;2023-01-26T12:43:01;99119.28;;;3.22;73.39
77171;BME280;66144;50.020;14.422;2023-01-26T12:45:33;99116.69;;;3.22;73.50
77171;BME280;66144;50.020;14.422;2023-01-26T12:48:20;99113.50;;;3.20;73.93
77171;BME280;66144;50.020;14.422;2023-01-26T12:50:49;99111.50;;;3.16;73.43
77171;BME280;66144;50.020;14.422;2023-01-26T12:55:47;99114.13;;;3.22;73.16
77171;BME280;66144;50.020;14.422;2023-01-26T12:58:17;99114.91;;;3.23;73.85
77171;BME280;66144;50.020;14.422;2023-01-26T13:03:32;99112.53;;;3.21;74.12
77171;BME280;66144;50.020;14.422;2023-01-26T13:10:59;99109.97;;;3.28;73.51
77171;BME280;66144;50.020;14.422;2023-01-26T13:16:09;99108.41;;;2.99;74.83
77171;BME280;66144;50.020;14.422;2023-01-26T13:18:55;99108.31;;;2.86;76.16
77171;BME280;66144;50.020;14.422;2023-01-26T13:26:42;99103.53;;;2.83;76.05
77171;BME280;66144;50.020;14.422;2023-01-26T13:31:53;99104.44;;;2.68;75.52
77171;BME280;66144;50.020;14.422;2023-01-26T13:34:34;99103.41;;;2.69;76.33
77171;BME280;66144;50.020;14.422;2023-01-26T13:37:26;99098.94;;;2.78;75.46
77171;BME280;66144;50.020;14.422;2023-01-26T13:39:58;99097.00;;;2.59;75.73
77171;BME280;66144;50.020;14.422;2023-01-26T13:42:32;99095.19;;;2.81;75.99
77171;BME280;66144;50.020;14.422;2023-01-26T13:45:03;99090.81;;;2.81;76.28
77171;BME280;66144;50.020;14.422;2023-01-26T13:47:37;99091.69;;;2.88;75.58
77171;BME280;66144;50.020;14.422;2023-01-26T13:50:40;99100.41;;;2.87;75.26
77171;BME280;66144;50.020;14.422;2023-01-26T13:53:35;99093.47;;;2.94;75.21
77171;BME280;66144;50.020;14.422;2023-01-26T13:56:03;99093.91;;;2.98;76.19
77171;BME280;66144;50.020;14.422;2023-01-26T13:58:29;99090.34;;;2.99;75.49
77171;BME280;66144;50.020;14.422;2023-01-26T14:00:58;99084.81;;;3.02;75.86
77171;BME280;66144;50.020;14.422;2023-01-26T14:03:24;99088.63;;;3.06;75.63
77171;BME280;66144;50.020;14.422;2023-01-26T14:05:56;99081.06;;;3.04;75.54
77171;BME280;66144;50.020;14.422;2023-01-26T14:08:22;99083.66;;;3.04;75.21
77171;BME280;66144;50.020;14.422;2023-01-26T14:10:48;99088.56;;;2.99;75.00
77171;BME280;66144;50.020;14.422;2023-01-26T14:13:27;99088.00;;;3.04;75.10
77171;BME280;66144;50.020;14.422;2023-01-26T14:15:59;99081.88;;;3.05;75.33
77171;BME280;66144;50.020;14.422;2023-01-26T14:18:26;99086.84;;;3.06;75.29
77171;BME280;66144;50.020;14.422;2023-01-26T14:21:03;99092.56;;;3.02;75.41
77171;BME280;66144;50.020;14.422;2023-01-26T14:23:34;99085.84;;;3.07;76.41
77171;BME280;66144;50.020;14.422;2023-01-26T14:26:05;99091.59;;;3.09;76.13
77171;BME280;66144;50.020;14.422;2023-01-26T14:28:36;99089.81;;;3.10;76.54
77171;BME280;66144;50.020;14.422;2023-01-26T14:31:22;99087.22;;;3.10;76.43
77171;BME280;66144;50.020;14.422;2023-01-26T14:33:50;99086.25;;;3.11;75.96
77171;BME280;66144;50.020;14.422;2023-01-26T14:36:19;99087.84;;;3.12;75.73